KHFD/HFD METAR and TAF weather

Enter ICAO airport designator
Station Type Date Time Source
KHFD METAR 2023/01/30 10:53 UTC NOAA

KHFD 301053Z 00000KT 10SM CLR 01/M01 A3015 RMK AO2 SLP210 T00061011


Station Type Date Time Source
KHFD Decoded METAR 2023/01/30 10:53 UTC NOAA

HARTFORD-BRAINARD AIRPORT, CT, United States (KHFD) 41-44N 072-39W 4M
Jan 30, 2023 - 05:53 AM EST / 2023.01.30 1053 UTC
Wind: Calm:0
Visibility: 10 mile(s):0
Sky conditions: clear
Temperature: 33.1 F (0.6 C)
Dew Point: 30.0 F (-1.1 C)
Relative Humidity: 88%
Pressure (altimeter): 30.15 in. Hg (1020 hPa)
ob: KHFD 301053Z 00000KT 10SM CLR 01/M01 A3015 RMK AO2 SLP210 T00061011
cycle: 11

Station Type Date Time Source
KHFD TAF UTC NOAA

Error!

Example: see airport list